createdAt,value
2022-09-06T00:00:36.622Z,1020.73
2022-09-06T00:01:36.570Z,1020.83
2022-09-06T00:02:36.632Z,1020.89
2022-09-06T00:03:36.561Z,1020.95
2022-09-06T00:04:36.705Z,1021.07
2022-09-06T00:05:36.516Z,1021.01
2022-09-06T00:06:36.502Z,1021.05
2022-09-06T00:07:36.545Z,1021.04
2022-09-06T00:08:36.473Z,1021.06
2022-09-06T00:09:36.469Z,1021.07
2022-09-06T00:10:36.484Z,1021.03
2022-09-06T00:11:36.450Z,1021.03
2022-09-06T00:12:36.428Z,1020.92
2022-09-06T00:13:36.423Z,1020.73
2022-09-06T00:14:36.395Z,1020.64
2022-09-06T00:15:36.480Z,1020.44
2022-09-06T00:16:36.398Z,1020.24
2022-09-06T00:17:36.367Z,1020.09
2022-09-06T00:18:36.354Z,1019.99
2022-09-06T00:19:36.345Z,1019.87
2022-09-06T00:20:36.339Z,1019.71
2022-09-06T00:21:36.332Z,1019.48
2022-09-06T00:22:36.353Z,1019.41
2022-09-06T00:23:36.327Z,1019.35
2022-09-06T00:24:36.288Z,1019.25
2022-09-06T00:25:36.268Z,1019.19
2022-09-06T00:26:36.260Z,1019.06
2022-09-06T00:27:36.259Z,1018.96
2022-09-06T00:28:36.312Z,1018.84
2022-09-06T00:29:36.219Z,1018.84
2022-09-06T00:30:36.208Z,1018.81
2022-09-06T00:31:36.229Z,1018.83
2022-09-06T00:32:36.160Z,1018.85
2022-09-06T00:33:36.170Z,1018.85
2022-09-06T00:34:36.172Z,1018.89
2022-09-06T00:35:36.163Z,1018.92
2022-09-06T00:36:36.106Z,1018.92
2022-09-06T00:37:36.131Z,1018.97
2022-09-06T00:38:36.091Z,1019.13
2022-09-06T00:39:36.179Z,1019.14
2022-09-06T00:40:36.114Z,1019.19
2022-09-06T00:41:36.057Z,1019.25
2022-09-06T00:42:36.047Z,1019.25
2022-09-06T00:43:36.035Z,1019.28
2022-09-06T00:44:36.067Z,1019.24
2022-09-06T00:45:36.032Z,1019.22
2022-09-06T00:46:36.060Z,1019.22
2022-09-06T00:47:36.008Z,1019.20
2022-09-06T00:48:35.956Z,1019.24
2022-09-06T00:49:35.972Z,1019.20
2022-09-06T00:50:35.935Z,1019.17
2022-09-06T00:51:35.925Z,1019.11
2022-09-06T00:52:35.951Z,1019.05
2022-09-06T00:53:35.901Z,1018.99
2022-09-06T00:54:35.871Z,1018.99
2022-09-06T00:55:35.880Z,1018.96
2022-09-06T00:56:35.844Z,1018.98
2022-09-06T00:57:35.860Z,1018.96
2022-09-06T00:58:35.883Z,1018.89
2022-09-06T00:59:35.818Z,1018.84
2022-09-06T01:00:35.808Z,1018.79
2022-09-06T01:01:35.900Z,1018.61
2022-09-06T01:02:35.957Z,1018.63
2022-09-06T01:03:35.772Z,1018.57
2022-09-06T01:04:35.775Z,1018.56
2022-09-06T01:05:35.750Z,1018.54
2022-09-06T01:06:35.727Z,1018.56
2022-09-06T01:07:35.721Z,1018.59
2022-09-06T01:08:35.711Z,1018.61
2022-09-06T01:09:35.695Z,1018.72
2022-09-06T01:10:35.697Z,1018.76
2022-09-06T01:11:35.702Z,1018.74
2022-09-06T01:12:35.643Z,1018.65
2022-09-06T01:13:35.634Z,1018.64
2022-09-06T01:14:35.637Z,1018.71
2022-09-06T01:15:35.651Z,1018.77
2022-09-06T01:16:35.615Z,1018.72
2022-09-06T01:17:35.630Z,1018.65
2022-09-06T01:18:35.562Z,1018.57
2022-09-06T01:19:35.557Z,1018.54
2022-09-06T01:20:35.607Z,1018.50
2022-09-06T01:21:35.540Z,1018.57
2022-09-06T01:22:35.550Z,1018.53
2022-09-06T01:23:35.556Z,1018.51
2022-09-06T01:24:35.486Z,1018.52
2022-09-06T01:25:35.475Z,1018.49
2022-09-06T01:26:35.524Z,1018.50
2022-09-06T01:27:35.461Z,1018.54
2022-09-06T01:28:35.458Z,1018.57
2022-09-06T01:29:35.429Z,1018.54
2022-09-06T01:30:35.485Z,1018.55
2022-09-06T01:31:35.410Z,1018.53
2022-09-06T01:32:35.385Z,1018.51
2022-09-06T01:33:35.376Z,1018.51
2022-09-06T01:34:35.538Z,1018.53
2022-09-06T01:35:35.345Z,1018.55
2022-09-06T01:36:36.042Z,1018.52
2022-09-06T01:37:35.379Z,1018.57
2022-09-06T01:38:35.310Z,1018.53
2022-09-06T01:39:35.325Z,1018.64
2022-09-06T01:40:35.461Z,1018.59
2022-09-06T01:41:35.275Z,1018.64
2022-09-06T01:42:35.244Z,1018.65
2022-09-06T01:43:35.254Z,1018.67
2022-09-06T01:44:35.234Z,1018.70
2022-09-06T01:45:35.218Z,1018.68
2022-09-06T01:46:35.258Z,1018.69
2022-09-06T01:47:35.266Z,1018.65
2022-09-06T01:48:35.172Z,1018.61
2022-09-06T01:49:35.166Z,1018.61
2022-09-06T01:50:35.208Z,1018.63
2022-09-06T01:51:35.151Z,1018.59
2022-09-06T01:52:35.155Z,1018.63
2022-09-06T01:53:35.133Z,1018.59
2022-09-06T01:54:35.111Z,1018.57
2022-09-06T01:55:35.178Z,1018.54
2022-09-06T01:56:35.061Z,1018.53
2022-09-06T01:57:35.067Z,1018.47
2022-09-06T01:58:35.135Z,1018.39
2022-09-06T01:59:35.045Z,1018.39
2022-09-06T02:00:35.002Z,1018.43
2022-09-06T02:01:35.160Z,1018.42
2022-09-06T02:02:35.021Z,1018.45
2022-09-06T02:03:34.987Z,1018.41
2022-09-06T02:04:34.999Z,1018.44
2022-09-06T02:05:34.993Z,1018.45
2022-09-06T02:06:34.937Z,1018.44
2022-09-06T02:07:34.999Z,1018.49
2022-09-06T02:08:34.906Z,1018.49
2022-09-06T02:09:34.919Z,1018.45
2022-09-06T02:10:34.935Z,1018.50
2022-09-06T02:11:34.884Z,1018.45
2022-09-06T02:12:34.864Z,1018.42
2022-09-06T02:13:34.917Z,1018.43
2022-09-06T02:14:34.843Z,1018.45
2022-09-06T02:15:34.839Z,1018.40
2022-09-06T02:16:34.856Z,1018.43
2022-09-06T02:17:34.836Z,1018.42
2022-09-06T02:18:34.792Z,1018.46
2022-09-06T02:19:34.843Z,1018.41
2022-09-06T02:20:34.748Z,1018.38
2022-09-06T02:21:34.756Z,1018.41
2022-09-06T02:22:34.783Z,1018.38
2022-09-06T02:23:34.732Z,1018.37
2022-09-06T02:24:34.709Z,1018.37
2022-09-06T02:25:34.733Z,1018.36
2022-09-06T02:26:34.668Z,1018.35
2022-09-06T02:27:34.671Z,1018.37
2022-09-06T02:28:34.722Z,1018.37
2022-09-06T02:29:34.646Z,1018.39
2022-09-06T02:30:34.694Z,1018.42
2022-09-06T02:31:34.646Z,1018.43
2022-09-06T02:32:34.595Z,1018.43
2022-09-06T02:33:34.589Z,1018.37
2022-09-06T02:34:34.672Z,1018.43
2022-09-06T02:35:34.571Z,1018.46
2022-09-06T02:36:34.545Z,1018.44
2022-09-06T02:37:34.590Z,1018.52
2022-09-06T02:38:34.517Z,1018.50
2022-09-06T02:39:34.551Z,1018.52
2022-09-06T02:40:34.528Z,1018.49
2022-09-06T02:41:34.482Z,1018.48
2022-09-06T02:42:34.456Z,1018.45
2022-09-06T02:43:34.513Z,1018.51
2022-09-06T02:44:34.441Z,1018.53
2022-09-06T02:45:34.460Z,1018.52
2022-09-06T02:46:34.479Z,1018.50
2022-09-06T02:47:34.416Z,1018.51
2022-09-06T02:48:34.384Z,1018.49
2022-09-06T02:49:34.387Z,1018.52
2022-09-06T02:50:34.385Z,1018.52
2022-09-06T02:51:34.359Z,1018.58
2022-09-06T02:52:34.365Z,1018.56
2022-09-06T02:53:34.343Z,1018.57
2022-09-06T02:54:34.297Z,1018.56
2022-09-06T02:55:34.309Z,1018.59
2022-09-06T02:56:34.283Z,1018.59
2022-09-06T02:57:34.282Z,1018.60
2022-09-06T02:58:34.321Z,1018.55
2022-09-06T02:59:34.264Z,1018.60
2022-09-06T03:00:34.231Z,1018.61
2022-09-06T03:01:34.385Z,1018.58
2022-09-06T03:02:34.223Z,1018.56
2022-09-06T03:03:34.215Z,1018.55
2022-09-06T03:04:34.209Z,1018.53
2022-09-06T03:05:34.177Z,1018.54
2022-09-06T03:06:34.159Z,1018.53
2022-09-06T03:07:34.150Z,1018.54
2022-09-06T03:08:34.124Z,1018.54
2022-09-06T03:09:34.182Z,1018.53
2022-09-06T03:10:34.129Z,1018.53
2022-09-06T03:11:34.092Z,1018.53
2022-09-06T03:12:34.109Z,1018.54
2022-09-06T03:13:34.074Z,1018.58
2022-09-06T03:14:34.047Z,1018.57
2022-09-06T03:15:34.054Z,1018.62
2022-09-06T03:16:34.090Z,1018.59
2022-09-06T03:17:34.015Z,1018.59
2022-09-06T03:18:33.988Z,1018.61
2022-09-06T03:19:33.999Z,1018.60
2022-09-06T03:20:37.083Z,1018.59
2022-09-06T03:21:33.975Z,1018.56
2022-09-06T03:22:33.970Z,1018.54
2022-09-06T03:23:33.943Z,1018.54
2022-09-06T03:24:33.905Z,1018.52
2022-09-06T03:25:33.912Z,1018.55
2022-09-06T03:26:33.926Z,1018.59
2022-09-06T03:27:33.883Z,1018.56
2022-09-06T03:28:33.910Z,1018.55
2022-09-06T03:29:33.878Z,1018.51
2022-09-06T03:30:33.870Z,1018.49
2022-09-06T03:31:33.836Z,1018.48
2022-09-06T03:32:33.857Z,1018.46
2022-09-06T03:33:33.806Z,1018.47
2022-09-06T03:34:33.809Z,1018.49
2022-09-06T03:35:33.819Z,1018.53
2022-09-06T03:36:33.760Z,1018.50
2022-09-06T03:37:33.755Z,1018.54
2022-09-06T03:38:33.800Z,1018.53
2022-09-06T03:39:33.767Z,1018.53
2022-09-06T03:40:33.766Z,1018.55
2022-09-06T03:41:33.769Z,1018.54
2022-09-06T03:42:33.696Z,1018.51
2022-09-06T03:43:33.673Z,1018.58
2022-09-06T03:44:33.651Z,1018.60
2022-09-06T03:45:33.735Z,1018.55
2022-09-06T03:46:33.650Z,1018.57
2022-09-06T03:47:33.627Z,1018.59
2022-09-06T03:48:33.602Z,1018.55
2022-09-06T03:49:33.590Z,1018.57
2022-09-06T03:50:33.570Z,1018.60
2022-09-06T03:51:33.588Z,1018.60
2022-09-06T03:52:33.575Z,1018.60
2022-09-06T03:53:33.544Z,1018.60
2022-09-06T03:54:33.566Z,1018.54
2022-09-06T03:55:33.523Z,1018.55
2022-09-06T03:56:33.493Z,1018.54
2022-09-06T03:57:33.490Z,1018.54
2022-09-06T03:58:33.508Z,1018.52
2022-09-06T03:59:33.466Z,1018.55
2022-09-06T04:00:33.438Z,1018.57
2022-09-06T04:01:33.523Z,1018.64
2022-09-06T04:02:33.445Z,1018.65
2022-09-06T04:03:33.408Z,1018.69
2022-09-06T04:04:33.432Z,1018.73
2022-09-06T04:05:33.385Z,1018.74
2022-09-06T04:06:33.393Z,1018.74
2022-09-06T04:07:33.404Z,1018.76
2022-09-06T04:08:33.335Z,1018.77
2022-09-06T04:09:33.345Z,1018.77
2022-09-06T04:10:33.342Z,1018.82
2022-09-06T04:11:33.427Z,1018.80
2022-09-06T04:12:33.295Z,1018.83
2022-09-06T04:13:33.309Z,1018.78
2022-09-06T04:14:33.255Z,1018.82
2022-09-06T04:15:33.253Z,1018.78
2022-09-06T04:16:33.335Z,1018.79
2022-09-06T04:17:33.266Z,1018.76
2022-09-06T04:18:33.255Z,1018.74
2022-09-06T04:19:33.210Z,1018.72
2022-09-06T04:20:33.176Z,1018.64
2022-09-06T04:21:33.190Z,1018.60
2022-09-06T04:22:33.198Z,1018.59
2022-09-06T04:23:36.485Z,1018.62
2022-09-06T04:24:33.143Z,1018.63
2022-09-06T04:25:33.093Z,1018.61
2022-09-06T04:26:33.058Z,1018.61
2022-09-06T04:27:33.027Z,1018.62
2022-09-06T04:28:33.067Z,1018.63
2022-09-06T04:29:33.002Z,1018.61
2022-09-06T04:30:33.003Z,1018.65
2022-09-06T04:31:33.017Z,1018.58
2022-09-06T04:32:32.971Z,1018.63
2022-09-06T04:33:32.976Z,1018.63
2022-09-06T04:34:32.981Z,1018.63
2022-09-06T04:35:32.923Z,1018.61
2022-09-06T04:36:32.939Z,1018.62
2022-09-06T04:37:32.895Z,1018.60
2022-09-06T04:38:32.906Z,1018.64
2022-09-06T04:39:32.921Z,1018.61
2022-09-06T04:40:32.906Z,1018.62
2022-09-06T04:41:32.841Z,1018.65
2022-09-06T04:42:32.843Z,1018.62
2022-09-06T04:43:32.830Z,1018.70
2022-09-06T04:44:32.810Z,1018.67
2022-09-06T04:45:32.812Z,1018.67
2022-09-06T04:46:32.856Z,1018.69
2022-09-06T04:47:32.760Z,1018.69
2022-09-06T04:48:32.767Z,1018.67
2022-09-06T04:49:32.754Z,1018.70
2022-09-06T04:50:32.760Z,1018.68
2022-09-06T04:51:32.720Z,1018.69
2022-09-06T04:52:32.743Z,1018.69
2022-09-06T04:53:32.707Z,1018.72
2022-09-06T04:54:32.684Z,1018.74
2022-09-06T04:55:32.661Z,1018.73
2022-09-06T04:56:32.656Z,1018.73
2022-09-06T04:57:32.629Z,1018.73
2022-09-06T04:58:32.664Z,1018.74
2022-09-06T04:59:32.617Z,1018.75
2022-09-06T05:00:32.625Z,1018.73
2022-09-06T05:01:32.634Z,1018.78
2022-09-06T05:02:32.633Z,1018.75
2022-09-06T05:03:32.556Z,1018.78
2022-09-06T05:04:32.579Z,1018.78
2022-09-06T05:05:32.530Z,1018.80
2022-09-06T05:06:32.526Z,1018.78
2022-09-06T05:07:32.503Z,1018.81
2022-09-06T05:08:32.501Z,1018.83
2022-09-06T05:09:32.471Z,1018.87
2022-09-06T05:10:32.510Z,1018.87
2022-09-06T05:11:32.467Z,1018.89
2022-09-06T05:12:32.448Z,1018.92
2022-09-06T05:13:32.442Z,1018.92
2022-09-06T05:14:32.422Z,1018.91
2022-09-06T05:15:32.398Z,1018.91
2022-09-06T05:16:32.517Z,1018.87
2022-09-06T05:17:32.380Z,1018.87
2022-09-06T05:18:32.365Z,1018.93
2022-09-06T05:19:32.347Z,1018.93
2022-09-06T05:20:32.364Z,1018.94
2022-09-06T05:21:32.319Z,1018.88
2022-09-06T05:22:32.363Z,1018.91
2022-09-06T05:23:32.297Z,1018.92
2022-09-06T05:24:32.309Z,1018.90
2022-09-06T05:25:32.266Z,1018.86
2022-09-06T05:26:32.258Z,1018.88
2022-09-06T05:27:32.239Z,1018.89
2022-09-06T05:28:32.278Z,1018.90
2022-09-06T05:29:32.207Z,1018.87
2022-09-06T05:30:32.224Z,1018.83
2022-09-06T05:31:32.252Z,1018.85
2022-09-06T05:32:32.185Z,1018.88
2022-09-06T05:33:32.156Z,1018.85
2022-09-06T05:34:32.188Z,1018.86
2022-09-06T05:35:32.138Z,1018.84
2022-09-06T05:36:32.131Z,1018.83
2022-09-06T05:37:32.129Z,1018.81
2022-09-06T05:38:32.293Z,1018.85
2022-09-06T05:39:32.142Z,1018.86
2022-09-06T05:40:32.112Z,1018.86
2022-09-06T05:41:32.091Z,1018.82
2022-09-06T05:42:32.066Z,1018.85
2022-09-06T05:43:32.033Z,1018.90
2022-09-06T05:44:32.112Z,1018.83
2022-09-06T05:45:32.037Z,1018.83
2022-09-06T05:46:32.030Z,1018.85
2022-09-06T05:47:31.990Z,1018.88
2022-09-06T05:48:36.603Z,1018.82
2022-09-06T05:49:31.960Z,1018.83
2022-09-06T05:50:31.961Z,1018.86
2022-09-06T05:51:31.918Z,1018.89
2022-09-06T05:52:31.986Z,1018.85
2022-09-06T05:53:31.903Z,1018.85
2022-09-06T05:54:31.893Z,1018.91
2022-09-06T05:55:31.875Z,1018.92
2022-09-06T05:56:31.880Z,1018.95
2022-09-06T05:57:31.860Z,1018.97
2022-09-06T05:58:31.873Z,1018.94
2022-09-06T05:59:31.836Z,1018.98
2022-09-06T06:00:31.822Z,1019.00
2022-09-06T06:01:31.831Z,1018.98
2022-09-06T06:02:31.828Z,1019.00
2022-09-06T06:03:31.768Z,1019.03
2022-09-06T06:04:31.858Z,1019.01
2022-09-06T06:05:31.752Z,1019.06
2022-09-06T06:06:31.749Z,1019.06
2022-09-06T06:07:31.736Z,1019.05
2022-09-06T06:08:31.717Z,1019.09
2022-09-06T06:09:31.685Z,1019.06
2022-09-06T06:10:34.368Z,1019.07
2022-09-06T06:11:31.662Z,1019.08
2022-09-06T06:12:31.663Z,1019.09
2022-09-06T06:13:31.684Z,1019.07
2022-09-06T06:14:31.637Z,1019.07
2022-09-06T06:15:31.606Z,1019.04
2022-09-06T06:16:31.710Z,1018.95
2022-09-06T06:17:31.586Z,1018.96
2022-09-06T06:18:31.606Z,1019.02
2022-09-06T06:19:31.569Z,1019.02
2022-09-06T06:20:31.547Z,1019.01
2022-09-06T06:21:31.557Z,1019.02
2022-09-06T06:22:31.573Z,1019.01
2022-09-06T06:23:31.504Z,1018.97
2022-09-06T06:24:31.526Z,1018.98
2022-09-06T06:25:31.489Z,1018.97
2022-09-06T06:26:31.504Z,1018.98
2022-09-06T06:27:31.454Z,1019.00
2022-09-06T06:28:31.549Z,1019.00
2022-09-06T06:29:31.424Z,1019.04
2022-09-06T06:30:31.425Z,1018.97
2022-09-06T06:31:31.448Z,1018.98
2022-09-06T06:32:31.396Z,1019.02
2022-09-06T06:33:31.371Z,1019.06
2022-09-06T06:34:31.433Z,1019.00
2022-09-06T06:35:31.340Z,1019.06
2022-09-06T06:36:31.353Z,1019.04
2022-09-06T06:37:31.339Z,1019.10
2022-09-06T06:38:31.315Z,1019.06
2022-09-06T06:39:31.319Z,1019.07
2022-09-06T06:40:31.347Z,1019.09
2022-09-06T06:41:31.281Z,1019.06
2022-09-06T06:42:31.305Z,1019.01
2022-09-06T06:43:31.258Z,1018.96
2022-09-06T06:44:31.249Z,1018.97
2022-09-06T06:45:31.249Z,1018.95
2022-09-06T06:46:31.274Z,1018.94
2022-09-06T06:47:31.189Z,1018.94
2022-09-06T06:48:31.186Z,1018.91
2022-09-06T06:49:31.182Z,1018.93
2022-09-06T06:50:31.156Z,1018.93
2022-09-06T06:51:31.136Z,1018.94
2022-09-06T06:52:31.193Z,1018.97
2022-09-06T06:53:31.110Z,1018.96
2022-09-06T06:54:31.113Z,1018.98
2022-09-06T06:55:31.087Z,1018.97
2022-09-06T06:56:31.087Z,1018.98
2022-09-06T06:57:31.050Z,1018.97
2022-09-06T06:58:31.133Z,1018.99
2022-09-06T06:59:31.038Z,1018.96
2022-09-06T07:00:31.081Z,1018.95
2022-09-06T07:01:31.183Z,1018.94
2022-09-06T07:02:31.036Z,1018.93
2022-09-06T07:03:30.986Z,1018.93
2022-09-06T07:04:31.023Z,1018.90
2022-09-06T07:07:31.283Z,1018.86
2022-09-06T07:08:30.921Z,1018.83
2022-09-06T07:10:34.930Z,1018.86
2022-09-06T07:11:30.881Z,1018.89
2022-09-06T07:12:36.879Z,1018.87
2022-09-06T07:13:30.853Z,1018.87
2022-09-06T07:14:30.843Z,1018.88
2022-09-06T07:15:30.838Z,1018.82
2022-09-06T07:16:30.935Z,1018.79
2022-09-06T07:17:30.920Z,1018.84
2022-09-06T07:18:30.796Z,1018.80
2022-09-06T07:20:31.036Z,1018.82
2022-09-06T07:21:38.411Z,1018.81
2022-09-06T07:22:30.804Z,1018.78
2022-09-06T07:24:30.769Z,1018.82
2022-09-06T07:25:30.688Z,1018.81
2022-09-06T07:26:30.723Z,1018.89
2022-09-06T07:28:30.749Z,1018.94
2022-09-06T07:29:30.702Z,1018.95
2022-09-06T07:30:30.639Z,1018.94
2022-09-06T07:32:30.652Z,1018.92
2022-09-06T07:33:30.664Z,1018.90
2022-09-06T07:34:30.664Z,1018.90
2022-09-06T07:35:30.570Z,1018.93
2022-09-06T07:36:30.605Z,1018.92
2022-09-06T07:37:30.567Z,1018.91
2022-09-06T07:38:30.532Z,1018.93
2022-09-06T07:39:30.655Z,1018.92
2022-09-06T07:40:30.540Z,1018.87
2022-09-06T07:41:30.477Z,1018.92
2022-09-06T07:42:35.670Z,1018.87
2022-09-06T07:43:30.461Z,1018.90
2022-09-06T07:44:30.452Z,1018.88
2022-09-06T07:45:30.456Z,1018.82
2022-09-06T07:46:30.515Z,1018.89
2022-09-06T07:48:30.433Z,1018.89
2022-09-06T07:49:34.693Z,1018.86
2022-09-06T07:51:30.416Z,1018.93
2022-09-06T07:53:31.307Z,1018.92
2022-09-06T07:54:31.185Z,1018.88
2022-09-06T07:55:30.300Z,1018.86
2022-09-06T07:56:30.378Z,1018.90
2022-09-06T07:57:30.332Z,1018.91
2022-09-06T07:58:30.351Z,1018.89
2022-09-06T07:59:30.259Z,1018.79
2022-09-06T08:00:30.319Z,1018.81
2022-09-06T08:01:30.354Z,1018.86
2022-09-06T08:02:30.294Z,1018.90
2022-09-06T08:03:30.218Z,1018.85
2022-09-06T08:04:30.297Z,1018.89
2022-09-06T08:06:30.326Z,1018.88
2022-09-06T08:09:30.182Z,1018.93
2022-09-06T08:10:30.209Z,1018.92
2022-09-06T08:11:30.099Z,1018.97
2022-09-06T08:12:30.119Z,1018.96
2022-09-06T08:13:30.076Z,1018.93
2022-09-06T08:14:30.062Z,1018.92
2022-09-06T08:15:30.054Z,1018.93
2022-09-06T08:16:30.154Z,1018.92
2022-09-06T08:17:30.112Z,1018.95
2022-09-06T08:18:30.033Z,1018.96
2022-09-06T08:19:29.996Z,1018.89
2022-09-06T08:20:30.009Z,1018.87
2022-09-06T08:21:30.049Z,1018.88
2022-09-06T08:22:29.999Z,1018.88
2022-09-06T08:23:29.939Z,1018.90
2022-09-06T08:24:30.002Z,1018.91
2022-09-06T08:25:29.910Z,1018.94
2022-09-06T08:26:29.940Z,1018.93
2022-09-06T08:27:29.880Z,1018.96
2022-09-06T08:28:29.911Z,1018.97
2022-09-06T08:29:29.854Z,1019.01
2022-09-06T08:30:29.898Z,1018.96
2022-09-06T08:31:29.872Z,1018.99
2022-09-06T08:32:29.831Z,1018.97
2022-09-06T08:33:29.799Z,1018.98
2022-09-06T08:34:29.846Z,1018.98
2022-09-06T08:35:29.788Z,1018.98
2022-09-06T08:36:29.763Z,1019.00
2022-09-06T08:37:29.780Z,1018.94
2022-09-06T08:38:29.749Z,1018.96
2022-09-06T08:39:29.845Z,1018.96
2022-09-06T08:40:29.783Z,1018.98
2022-09-06T08:41:29.730Z,1018.96
2022-09-06T08:42:29.680Z,1019.01
2022-09-06T08:43:29.729Z,1019.02
2022-09-06T08:45:29.671Z,1019.04
2022-09-06T08:46:29.730Z,1019.02
2022-09-06T08:47:29.659Z,1019.01
2022-09-06T08:48:29.606Z,1019.06
2022-09-06T08:49:29.622Z,1019.04
2022-09-06T08:50:29.582Z,1019.00
2022-09-06T08:51:29.586Z,1019.01
2022-09-06T08:52:29.628Z,1019.02
2022-09-06T08:53:29.557Z,1019.00
2022-09-06T08:54:29.573Z,1019.01
2022-09-06T08:55:29.566Z,1018.97
2022-09-06T08:56:29.530Z,1018.99
2022-09-06T08:57:29.561Z,1019.00
2022-09-06T08:58:29.633Z,1019.02
2022-09-06T08:59:29.484Z,1019.02
2022-09-06T09:00:29.498Z,1019.04
2022-09-06T09:01:29.465Z,1019.01
2022-09-06T09:02:29.555Z,1019.02
2022-09-06T09:03:29.455Z,1019.04
2022-09-06T09:04:29.442Z,1019.03
2022-09-06T09:05:29.470Z,1018.98
2022-09-06T09:06:29.389Z,1019.01
2022-09-06T09:07:29.402Z,1019.05
2022-09-06T09:08:29.653Z,1019.00
2022-09-06T09:09:29.403Z,1018.99
2022-09-06T09:10:29.387Z,1018.98
2022-09-06T09:11:29.328Z,1018.98
2022-09-06T09:12:29.300Z,1019.00
2022-09-06T09:13:29.311Z,1018.97
2022-09-06T09:14:29.316Z,1018.97
2022-09-06T09:15:29.283Z,1018.99
2022-09-06T09:16:29.319Z,1018.95
2022-09-06T09:17:29.295Z,1018.96
2022-09-06T09:18:29.380Z,1018.93
2022-09-06T09:19:29.229Z,1018.94
2022-09-06T09:20:29.198Z,1018.94
2022-09-06T09:21:30.987Z,1018.98
2022-09-06T09:22:29.216Z,1018.94
2022-09-06T09:23:29.231Z,1018.90
2022-09-06T09:24:29.146Z,1018.90
2022-09-06T09:25:29.191Z,1018.96
2022-09-06T09:26:29.123Z,1018.93
2022-09-06T09:27:29.176Z,1018.94
2022-09-06T09:28:29.362Z,1018.95
2022-09-06T09:29:33.222Z,1018.96
2022-09-06T09:31:29.166Z,1018.86
2022-09-06T09:32:29.048Z,1018.84
2022-09-06T09:33:29.227Z,1018.85
2022-09-06T09:34:29.061Z,1018.83
2022-09-06T09:35:29.022Z,1018.86
2022-09-06T09:36:28.994Z,1018.86
2022-09-06T09:38:29.155Z,1018.83
2022-09-06T09:39:29.085Z,1018.86
2022-09-06T09:40:28.982Z,1018.85
2022-09-06T09:41:28.967Z,1018.87
2022-09-06T09:42:28.935Z,1018.88
2022-09-06T09:43:28.916Z,1018.87
2022-09-06T09:44:28.887Z,1018.79
2022-09-06T09:45:28.902Z,1018.75
2022-09-06T09:46:28.940Z,1018.73
2022-09-06T09:47:28.869Z,1018.68
2022-09-06T09:48:28.986Z,1018.69
2022-09-06T09:49:28.841Z,1018.68
2022-09-06T09:50:28.810Z,1018.71
2022-09-06T09:51:28.811Z,1018.69
2022-09-06T09:52:28.820Z,1018.75
2022-09-06T09:53:28.839Z,1018.79
2022-09-06T09:54:28.764Z,1018.79
2022-09-06T09:55:28.767Z,1018.74
2022-09-06T09:56:28.729Z,1018.82
2022-09-06T09:57:28.750Z,1018.81
2022-09-06T09:58:28.895Z,1018.81
2022-09-06T09:59:28.706Z,1018.83
2022-09-06T10:00:28.764Z,1018.81
2022-09-06T10:01:28.677Z,1018.84
2022-09-06T10:02:28.654Z,1018.85
2022-09-06T10:03:28.834Z,1018.89
2022-09-06T10:04:44.737Z,1018.91
2022-09-06T10:05:28.636Z,1018.91
2022-09-06T10:07:28.607Z,1018.85
2022-09-06T10:08:28.714Z,1018.83
2022-09-06T10:09:28.579Z,1018.84
2022-09-06T10:10:28.614Z,1018.84
2022-09-06T10:11:28.554Z,1018.84
2022-09-06T10:12:28.568Z,1018.80
2022-09-06T10:13:28.564Z,1018.80
2022-09-06T10:14:28.496Z,1018.83
2022-09-06T10:15:28.555Z,1018.81
2022-09-06T10:16:28.577Z,1018.84
2022-09-06T10:17:28.472Z,1018.81
2022-09-06T10:18:28.597Z,1018.80
2022-09-06T10:19:28.481Z,1018.80
2022-09-06T10:20:28.468Z,1018.80
2022-09-06T10:21:28.433Z,1018.77
2022-09-06T10:22:28.423Z,1018.83
2022-09-06T10:24:28.444Z,1018.80
2022-09-06T10:25:28.366Z,1018.80
2022-09-06T10:26:28.340Z,1018.80
2022-09-06T10:27:28.339Z,1018.78
2022-09-06T10:28:28.463Z,1018.79
2022-09-06T10:29:28.317Z,1018.86
2022-09-06T10:30:28.319Z,1018.74
2022-09-06T10:31:28.380Z,1018.73
2022-09-06T10:32:31.155Z,1018.66
2022-09-06T10:33:28.317Z,1018.72
2022-09-06T10:34:28.445Z,1018.67
2022-09-06T10:35:28.269Z,1018.71
2022-09-06T10:36:28.219Z,1018.66
2022-09-06T10:37:28.215Z,1018.61
2022-09-06T10:38:28.331Z,1018.61
2022-09-06T10:39:28.224Z,1018.61
2022-09-06T10:40:28.219Z,1018.62
2022-09-06T10:41:28.173Z,1018.57
2022-09-06T10:42:28.140Z,1018.58
2022-09-06T10:43:28.138Z,1018.59
2022-09-06T10:44:28.109Z,1018.59
2022-09-06T10:45:28.116Z,1018.57
2022-09-06T10:46:28.216Z,1018.58
2022-09-06T10:47:28.086Z,1018.60
2022-09-06T10:48:28.390Z,1018.59
2022-09-06T10:49:28.065Z,1018.55
2022-09-06T10:50:28.065Z,1018.56
2022-09-06T10:51:28.038Z,1018.60
2022-09-06T10:52:28.103Z,1018.56
2022-09-06T10:53:28.011Z,1018.52
2022-09-06T10:54:27.995Z,1018.45
2022-09-06T10:55:28.026Z,1018.42
2022-09-06T10:56:27.966Z,1018.45
2022-09-06T10:58:28.487Z,1018.42
2022-09-06T11:00:27.915Z,1018.39
2022-09-06T11:01:28.010Z,1018.36
2022-09-06T11:02:28.018Z,1018.34
2022-09-06T11:04:27.976Z,1018.31
2022-09-06T11:05:43.118Z,1018.34
2022-09-06T11:06:28.283Z,1018.32
2022-09-06T11:07:27.830Z,1018.28
2022-09-06T11:09:27.838Z,1018.21
2022-09-06T11:10:27.814Z,1018.25
2022-09-06T11:11:27.787Z,1018.21
2022-09-06T11:12:27.757Z,1018.20
2022-09-06T11:13:27.753Z,1018.26
2022-09-06T11:14:27.729Z,1018.28
2022-09-06T11:15:27.745Z,1018.26
2022-09-06T11:16:27.818Z,1018.23
2022-09-06T11:17:27.700Z,1018.21
2022-09-06T11:18:27.860Z,1018.19
2022-09-06T11:19:27.669Z,1018.22
2022-09-06T11:20:31.932Z,1018.18
2022-09-06T11:21:27.684Z,1018.23
2022-09-06T11:22:27.631Z,1018.21
2022-09-06T11:23:27.793Z,1018.17
2022-09-06T11:24:27.603Z,1018.18
2022-09-06T11:25:27.610Z,1018.19
2022-09-06T11:26:27.578Z,1018.16
2022-09-06T11:27:27.640Z,1018.17
2022-09-06T11:28:27.549Z,1018.15
2022-09-06T11:29:27.545Z,1018.17
2022-09-06T11:30:27.570Z,1018.10
2022-09-06T11:32:27.530Z,1018.10
2022-09-06T11:33:27.748Z,1018.09
2022-09-06T11:34:27.474Z,1018.16
2022-09-06T11:35:27.513Z,1018.12
2022-09-06T11:36:27.441Z,1018.13
2022-09-06T11:37:27.517Z,1018.07
2022-09-06T11:38:27.437Z,1018.10
2022-09-06T11:40:28.427Z,1018.12
2022-09-06T11:41:27.394Z,1018.08
2022-09-06T11:42:27.384Z,1018.05
2022-09-06T11:43:27.529Z,1018.04
2022-09-06T11:44:27.342Z,1018.03
2022-09-06T11:45:27.340Z,1018.05
2022-09-06T11:46:27.358Z,1018.05
2022-09-06T11:47:27.316Z,1018.05
2022-09-06T11:48:27.323Z,1018.06
2022-09-06T11:49:27.289Z,1018.03
2022-09-06T11:50:27.270Z,1018.02
2022-09-06T11:51:27.266Z,1018.06
2022-09-06T11:52:27.237Z,1018.05
2022-09-06T11:53:27.509Z,1018.03
2022-09-06T11:54:27.254Z,1018.08
2022-09-06T11:55:27.213Z,1018.05
2022-09-06T11:56:27.239Z,1018.10
2022-09-06T11:57:27.190Z,1018.03
2022-09-06T11:58:27.209Z,1017.97
2022-09-06T11:59:27.279Z,1018.01
2022-09-06T12:00:27.141Z,1018.00
2022-09-06T12:01:27.139Z,1018.02
2022-09-06T12:02:27.273Z,1018.02
2022-09-06T12:04:27.087Z,1018.01
2022-09-06T12:05:27.111Z,1018.00
2022-09-06T12:06:27.102Z,1017.99
2022-09-06T12:07:27.065Z,1017.97
2022-09-06T12:08:27.088Z,1018.05
2022-09-06T12:09:27.045Z,1017.98
2022-09-06T12:10:27.054Z,1018.01
2022-09-06T12:11:30.169Z,1018.00
2022-09-06T12:12:26.989Z,1018.04
2022-09-06T12:13:26.984Z,1018.00
2022-09-06T12:14:26.958Z,1018.01
2022-09-06T12:15:26.956Z,1017.99
2022-09-06T12:16:27.078Z,1017.97
2022-09-06T12:17:26.945Z,1017.99
2022-09-06T12:18:26.910Z,1017.89
2022-09-06T12:19:26.916Z,1017.91
2022-09-06T12:20:26.896Z,1017.90
2022-09-06T12:21:26.930Z,1017.86
2022-09-06T12:22:26.866Z,1017.88
2022-09-06T12:23:26.863Z,1017.91
2022-09-06T12:24:26.839Z,1017.87
2022-09-06T12:25:26.838Z,1017.88
2022-09-06T12:26:26.807Z,1017.85
2022-09-06T12:27:26.835Z,1017.87
2022-09-06T12:28:26.837Z,1017.85
2022-09-06T12:29:26.789Z,1017.86
2022-09-06T12:30:26.758Z,1017.85